createdAt,value
2022-12-01T00:00:17.238Z,2.63
2022-12-01T00:01:16.767Z,2.65
2022-12-01T00:02:16.558Z,2.67
2022-12-01T00:03:17.325Z,2.67
2022-12-01T00:04:17.160Z,2.65
2022-12-01T00:05:16.636Z,2.68
2022-12-01T00:06:17.115Z,2.68
2022-12-01T00:07:16.598Z,2.65
2022-12-01T00:08:17.089Z,2.68
2022-12-01T00:09:19.374Z,2.65
2022-12-01T00:10:16.810Z,2.68
2022-12-01T00:11:17.286Z,2.69
2022-12-01T00:12:16.903Z,2.72
2022-12-01T00:13:16.408Z,2.72
2022-12-01T00:14:16.914Z,2.68
2022-12-01T00:15:16.399Z,2.72
2022-12-01T00:16:17.051Z,2.69
2022-12-01T00:17:16.731Z,2.67
2022-12-01T00:18:17.231Z,2.68
2022-12-01T00:19:16.705Z,2.71
2022-12-01T00:20:17.187Z,2.71
2022-12-01T00:21:16.658Z,2.72
2022-12-01T00:22:17.083Z,2.71
2022-12-01T00:23:16.538Z,2.69
2022-12-01T00:24:17.088Z,2.74
2022-12-01T00:25:16.563Z,2.72
2022-12-01T00:26:17.056Z,2.69
2022-12-01T00:27:16.562Z,2.69
2022-12-01T00:28:17.048Z,2.69
2022-12-01T00:29:16.556Z,2.69
2022-12-01T00:30:17.051Z,2.68
2022-12-01T00:31:16.610Z,2.67
2022-12-01T00:32:17.067Z,2.71
2022-12-01T00:33:16.671Z,2.69
2022-12-01T00:34:17.155Z,2.69
2022-12-01T00:35:16.632Z,2.67
2022-12-01T00:36:17.125Z,2.64
2022-12-01T00:37:16.652Z,2.64
2022-12-01T00:38:17.136Z,2.65
2022-12-01T00:39:16.617Z,2.68
2022-12-01T00:40:17.135Z,2.71
2022-12-01T00:41:16.607Z,2.71
2022-12-01T00:42:16.593Z,2.69
2022-12-01T00:43:17.057Z,2.69
2022-12-01T00:44:16.564Z,2.69
2022-12-01T00:45:17.072Z,2.64
2022-12-01T00:46:16.648Z,2.65
2022-12-01T00:47:17.610Z,2.67
2022-12-01T00:48:17.087Z,2.64
2022-12-01T00:49:16.598Z,2.68
2022-12-01T00:50:17.058Z,2.69
2022-12-01T00:51:16.548Z,2.65
2022-12-01T00:52:17.229Z,2.67
2022-12-01T00:53:16.692Z,2.67
2022-12-01T00:54:17.214Z,2.68
2022-12-01T00:55:16.690Z,2.69
2022-12-01T00:56:17.185Z,2.69
2022-12-01T00:57:16.662Z,2.68
2022-12-01T00:58:17.152Z,2.68
2022-12-01T00:59:16.624Z,2.68
2022-12-01T01:00:17.091Z,2.68
2022-12-01T01:01:16.655Z,2.69
2022-12-01T01:02:16.437Z,2.68
2022-12-01T01:03:17.026Z,2.67
2022-12-01T01:04:16.547Z,2.68
2022-12-01T01:05:17.053Z,2.71
2022-12-01T01:06:16.534Z,2.71
2022-12-01T01:07:17.026Z,2.72
2022-12-01T01:08:16.517Z,2.69
2022-12-01T01:09:16.992Z,2.65
2022-12-01T01:10:16.520Z,2.69
2022-12-01T01:11:17.036Z,2.69
2022-12-01T01:12:16.914Z,2.68
2022-12-01T01:13:16.398Z,2.68
2022-12-01T01:14:16.899Z,2.65
2022-12-01T01:15:16.363Z,2.67
2022-12-01T01:16:16.855Z,2.71
2022-12-01T01:17:16.391Z,2.71
2022-12-01T01:18:16.859Z,2.68
2022-12-01T01:19:16.514Z,2.67
2022-12-01T01:20:17.006Z,2.67
2022-12-01T01:21:16.499Z,2.67
2022-12-01T01:22:17.399Z,2.67
2022-12-01T01:23:16.917Z,2.67
2022-12-01T01:24:16.428Z,2.67
2022-12-01T01:25:16.929Z,2.67
2022-12-01T01:26:16.404Z,2.65
2022-12-01T01:27:16.900Z,2.65
2022-12-01T01:28:16.379Z,2.67
2022-12-01T01:29:16.859Z,2.67
2022-12-01T01:30:16.377Z,2.67
2022-12-01T01:31:16.973Z,2.67
2022-12-01T01:32:16.475Z,2.64
2022-12-01T01:33:16.940Z,2.65
2022-12-01T01:34:16.403Z,2.67
2022-12-01T01:35:16.887Z,2.69
2022-12-01T01:36:16.401Z,2.69
2022-12-01T01:37:16.889Z,2.69
2022-12-01T01:38:16.386Z,2.71
2022-12-01T01:39:16.875Z,2.67
2022-12-01T01:40:16.360Z,2.69
2022-12-01T01:41:16.871Z,2.69
2022-12-01T01:42:16.528Z,2.69
2022-12-01T01:43:16.975Z,2.72
2022-12-01T01:44:16.467Z,2.69
2022-12-01T01:45:16.921Z,2.69
2022-12-01T01:46:16.431Z,2.71
2022-12-01T01:47:17.125Z,2.67
2022-12-01T01:48:16.614Z,2.71
2022-12-01T01:49:17.091Z,2.72
2022-12-01T01:50:16.582Z,2.74
2022-12-01T01:51:17.050Z,2.76
2022-12-01T01:52:16.723Z,2.75
2022-12-01T01:53:17.208Z,2.72
2022-12-01T01:54:16.675Z,2.74
2022-12-01T01:55:17.138Z,2.68
2022-12-01T01:56:16.622Z,2.68
2022-12-01T01:57:17.104Z,2.71
2022-12-01T01:58:16.552Z,2.68
2022-12-01T01:59:17.009Z,2.68
2022-12-01T02:00:16.491Z,2.67
2022-12-01T02:01:17.068Z,2.68
2022-12-01T02:02:16.582Z,2.69
2022-12-01T02:03:17.133Z,2.69
2022-12-01T02:04:16.656Z,2.68
2022-12-01T02:05:17.168Z,2.68
2022-12-01T02:06:16.658Z,2.69
2022-12-01T02:07:17.206Z,2.69
2022-12-01T02:08:16.679Z,2.68
2022-12-01T02:09:17.155Z,2.67
2022-12-01T02:10:16.624Z,2.71
2022-12-01T02:11:17.100Z,2.72
2022-12-01T02:12:17.023Z,2.76
2022-12-01T02:13:16.486Z,2.75
2022-12-01T02:14:16.966Z,2.72
2022-12-01T02:15:16.461Z,2.68
2022-12-01T02:16:16.992Z,2.74
2022-12-01T02:17:16.577Z,2.75
2022-12-01T02:18:17.174Z,2.74
2022-12-01T02:19:16.671Z,2.76
2022-12-01T02:20:17.159Z,2.75
2022-12-01T02:21:16.647Z,2.72
2022-12-01T02:22:17.075Z,2.71
2022-12-01T02:23:16.562Z,2.72
2022-12-01T02:24:17.048Z,2.72
2022-12-01T02:25:16.516Z,2.74
2022-12-01T02:26:16.987Z,2.72
2022-12-01T02:27:16.483Z,2.76
2022-12-01T02:28:16.946Z,2.76
2022-12-01T02:29:16.422Z,2.76
2022-12-01T02:30:16.905Z,2.74
2022-12-01T02:31:16.432Z,2.72
2022-12-01T02:32:17.002Z,2.78
2022-12-01T02:33:16.523Z,2.79
2022-12-01T02:34:16.997Z,2.71
2022-12-01T02:35:16.497Z,2.69
2022-12-01T02:36:16.974Z,2.68
2022-12-01T02:37:16.453Z,2.69
2022-12-01T02:38:16.926Z,2.71
2022-12-01T02:39:16.412Z,2.67
2022-12-01T02:40:16.898Z,2.68
2022-12-01T02:41:16.389Z,2.68
2022-12-01T02:42:17.265Z,2.72
2022-12-01T02:43:16.767Z,2.72
2022-12-01T02:44:17.246Z,2.71
2022-12-01T02:45:16.744Z,2.68
2022-12-01T02:46:17.275Z,2.67
2022-12-01T02:47:16.881Z,2.69
2022-12-01T02:48:16.367Z,2.65
2022-12-01T02:49:16.839Z,2.63
2022-12-01T02:50:16.328Z,2.67
2022-12-01T02:51:16.846Z,2.67
2022-12-01T02:52:16.817Z,2.67
2022-12-01T02:53:17.313Z,2.63
2022-12-01T02:54:16.785Z,2.65
2022-12-01T02:55:17.258Z,2.67
2022-12-01T02:56:16.719Z,2.64
2022-12-01T02:57:17.232Z,2.64
2022-12-01T02:58:16.702Z,2.63
2022-12-01T02:59:17.233Z,2.64
2022-12-01T03:00:16.713Z,2.64
2022-12-01T03:01:17.253Z,2.65
2022-12-01T03:02:17.132Z,2.63
2022-12-01T03:03:16.769Z,2.64
2022-12-01T03:04:17.290Z,2.65
2022-12-01T03:05:16.781Z,2.68
2022-12-01T03:06:17.258Z,2.65
2022-12-01T03:07:16.713Z,2.65
2022-12-01T03:08:17.181Z,2.64
2022-12-01T03:09:16.640Z,2.67
2022-12-01T03:10:17.098Z,2.65
2022-12-01T03:11:16.584Z,2.67
2022-12-01T03:12:16.918Z,2.64
2022-12-01T03:13:16.392Z,2.67
2022-12-01T03:14:16.881Z,2.65
2022-12-01T03:15:16.401Z,2.65
2022-12-01T03:16:16.976Z,2.65
2022-12-01T03:17:16.540Z,2.68
2022-12-01T03:18:17.051Z,2.68
2022-12-01T03:19:16.544Z,2.67
2022-12-01T03:20:17.046Z,2.71
2022-12-01T03:21:16.511Z,2.69
2022-12-01T03:22:17.298Z,2.69
2022-12-01T03:23:16.782Z,2.72
2022-12-01T03:24:17.227Z,2.69
2022-12-01T03:25:16.679Z,2.72
2022-12-01T03:26:17.174Z,2.69
2022-12-01T03:27:16.663Z,2.72
2022-12-01T03:28:21.802Z,2.71
2022-12-01T03:29:17.237Z,2.69
2022-12-01T03:30:16.763Z,2.69
2022-12-01T03:31:17.364Z,2.69
2022-12-01T03:32:17.111Z,2.69
2022-12-01T03:33:16.631Z,2.69
2022-12-01T03:34:17.104Z,2.72
2022-12-01T03:35:16.592Z,2.71
2022-12-01T03:36:17.061Z,2.68
2022-12-01T03:37:16.533Z,2.71
2022-12-01T03:38:17.037Z,2.72
2022-12-01T03:39:16.510Z,2.71
2022-12-01T03:40:17.014Z,2.68
2022-12-01T03:41:16.541Z,2.71
2022-12-01T03:42:17.244Z,2.72
2022-12-01T03:43:16.754Z,2.71
2022-12-01T03:44:17.299Z,2.71
2022-12-01T03:45:16.786Z,2.71
2022-12-01T03:46:17.284Z,2.74
2022-12-01T03:47:16.890Z,2.72
2022-12-01T03:48:16.378Z,2.71
2022-12-01T03:49:16.836Z,2.72
2022-12-01T03:50:16.309Z,2.69
2022-12-01T03:51:16.839Z,2.74
2022-12-01T03:52:17.080Z,2.74
2022-12-01T03:53:16.586Z,2.74
2022-12-01T03:54:17.068Z,2.75
2022-12-01T03:55:16.535Z,2.71
2022-12-01T03:56:17.006Z,2.72
2022-12-01T03:57:16.467Z,2.69
2022-12-01T03:58:16.969Z,2.74
2022-12-01T03:59:16.446Z,2.72
2022-12-01T04:00:16.935Z,2.74
2022-12-01T04:01:16.461Z,2.72
2022-12-01T04:02:17.350Z,2.71
2022-12-01T04:03:16.928Z,2.72
2022-12-01T04:04:16.498Z,2.74
2022-12-01T04:05:20.002Z,2.72
2022-12-01T04:06:16.917Z,2.74
2022-12-01T04:07:16.397Z,2.74
2022-12-01T04:08:16.910Z,2.74
2022-12-01T04:09:16.384Z,2.75
2022-12-01T04:10:16.873Z,2.76
2022-12-01T04:11:16.339Z,2.74
2022-12-01T04:12:16.516Z,2.74
2022-12-01T04:13:17.018Z,2.74
2022-12-01T04:14:16.506Z,2.72
2022-12-01T04:15:17.004Z,2.71
2022-12-01T04:16:16.545Z,2.76
2022-12-01T04:17:17.105Z,2.74
2022-12-01T04:18:16.616Z,2.75
2022-12-01T04:19:17.115Z,2.76
2022-12-01T04:20:16.661Z,2.74
2022-12-01T04:21:17.143Z,2.76
2022-12-01T04:22:17.306Z,2.81
2022-12-01T04:23:16.782Z,2.78
2022-12-01T04:24:17.252Z,2.75
2022-12-01T04:25:16.749Z,2.76
2022-12-01T04:26:17.230Z,2.78
2022-12-01T04:27:16.688Z,2.75
2022-12-01T04:28:17.187Z,2.75
2022-12-01T04:29:16.671Z,2.76
2022-12-01T04:30:17.172Z,2.72
2022-12-01T04:31:16.689Z,2.74
2022-12-01T04:32:16.314Z,2.76
2022-12-01T04:33:16.790Z,2.75
2022-12-01T04:34:17.296Z,2.76
2022-12-01T04:35:16.792Z,2.76
2022-12-01T04:36:17.274Z,2.78
2022-12-01T04:37:16.775Z,2.78
2022-12-01T04:38:17.234Z,2.76
2022-12-01T04:39:16.701Z,2.78
2022-12-01T04:40:17.179Z,2.76
2022-12-01T04:41:16.694Z,2.78
2022-12-01T04:42:16.311Z,2.79
2022-12-01T04:43:16.804Z,2.78
2022-12-01T04:44:17.282Z,2.76
2022-12-01T04:45:16.766Z,2.78
2022-12-01T04:46:17.337Z,2.76
2022-12-01T04:47:16.904Z,2.78
2022-12-01T04:48:16.394Z,2.75
2022-12-01T04:49:16.887Z,2.78
2022-12-01T04:50:16.379Z,2.76
2022-12-01T04:51:16.837Z,2.78
2022-12-01T04:52:16.365Z,2.81
2022-12-01T04:53:16.841Z,2.75
2022-12-01T04:54:16.326Z,2.76
2022-12-01T04:55:16.814Z,2.75
2022-12-01T04:56:17.329Z,2.75
2022-12-01T04:57:16.809Z,2.78
2022-12-01T04:58:16.541Z,2.76
2022-12-01T04:59:17.038Z,2.76
2022-12-01T05:00:16.533Z,2.76
2022-12-01T05:01:17.141Z,2.76
2022-12-01T05:02:16.644Z,2.78
2022-12-01T05:03:17.263Z,2.79
2022-12-01T05:04:16.748Z,2.78
2022-12-01T05:05:17.237Z,2.75
2022-12-01T05:06:16.702Z,2.78
2022-12-01T05:07:17.199Z,2.78
2022-12-01T05:08:16.670Z,2.79
2022-12-01T05:09:17.870Z,2.79
2022-12-01T05:10:16.497Z,2.78
2022-12-01T05:11:16.978Z,2.78
2022-12-01T05:12:16.633Z,2.79
2022-12-01T05:13:17.113Z,2.76
2022-12-01T05:14:16.594Z,2.76
2022-12-01T05:15:17.083Z,2.78
2022-12-01T05:16:16.568Z,2.81
2022-12-01T05:17:17.191Z,2.84
2022-12-01T05:18:16.684Z,2.81
2022-12-01T05:19:17.300Z,2.78
2022-12-01T05:20:16.817Z,2.79
2022-12-01T05:21:17.294Z,2.81
2022-12-01T05:22:17.231Z,2.82
2022-12-01T05:23:17.307Z,2.82
2022-12-01T05:24:16.865Z,2.84
2022-12-01T05:25:16.391Z,2.82
2022-12-01T05:26:16.872Z,2.82
2022-12-01T05:27:16.367Z,2.81
2022-12-01T05:28:16.847Z,2.81
2022-12-01T05:29:16.341Z,2.86
2022-12-01T05:30:16.854Z,2.82
2022-12-01T05:31:16.355Z,2.85
2022-12-01T05:32:16.944Z,2.88
2022-12-01T05:33:16.425Z,2.85
2022-12-01T05:34:16.877Z,2.88
2022-12-01T05:35:16.373Z,2.88
2022-12-01T05:36:16.877Z,2.91
2022-12-01T05:37:16.368Z,2.89
2022-12-01T05:38:16.879Z,2.89
2022-12-01T05:39:16.367Z,2.91
2022-12-01T05:40:16.843Z,2.89
2022-12-01T05:41:16.336Z,2.88
2022-12-01T05:42:16.382Z,2.91
2022-12-01T05:43:16.898Z,2.88
2022-12-01T05:44:16.386Z,2.85
2022-12-01T05:45:16.862Z,2.88
2022-12-01T05:46:16.402Z,2.89
2022-12-01T05:47:17.072Z,2.92
2022-12-01T05:48:16.546Z,2.91
2022-12-01T05:49:17.011Z,2.91
2022-12-01T05:50:16.480Z,2.92
2022-12-01T05:51:16.935Z,2.96
2022-12-01T05:52:16.620Z,2.98
2022-12-01T05:53:17.087Z,2.93
2022-12-01T05:54:16.626Z,2.92
2022-12-01T05:55:17.093Z,2.95
2022-12-01T05:56:16.586Z,2.96
2022-12-01T05:57:17.076Z,2.98
2022-12-01T05:58:16.548Z,2.95
2022-12-01T05:59:17.046Z,2.96
2022-12-01T06:00:16.551Z,2.96
2022-12-01T06:01:17.034Z,2.95
2022-12-01T06:02:16.452Z,2.95
2022-12-01T06:03:16.966Z,2.93
2022-12-01T06:04:16.500Z,2.99
2022-12-01T06:05:17.096Z,2.95
2022-12-01T06:06:16.610Z,2.95
2022-12-01T06:07:17.108Z,2.95
2022-12-01T06:08:16.606Z,2.96
2022-12-01T06:09:17.107Z,2.92
2022-12-01T06:10:16.606Z,2.99
2022-12-01T06:11:17.083Z,2.95
2022-12-01T06:12:16.728Z,2.92
2022-12-01T06:13:17.211Z,2.92
2022-12-01T06:14:16.675Z,2.86
2022-12-01T06:15:17.191Z,2.85
2022-12-01T06:16:16.717Z,2.85
2022-12-01T06:17:17.251Z,2.82
2022-12-01T06:18:16.731Z,2.76
2022-12-01T06:19:17.231Z,2.75
2022-12-01T06:20:16.718Z,2.71
2022-12-01T06:21:17.195Z,2.75
2022-12-01T06:22:17.168Z,2.76
2022-12-01T06:23:16.635Z,2.78
2022-12-01T06:24:17.135Z,2.69
2022-12-01T06:25:16.611Z,2.63
2022-12-01T06:26:17.075Z,2.63
2022-12-01T06:27:16.549Z,2.64
2022-12-01T06:28:17.003Z,2.65
2022-12-01T06:29:16.504Z,2.72
2022-12-01T06:30:16.988Z,2.78
2022-12-01T06:31:16.599Z,2.84
2022-12-01T06:32:16.505Z,2.85
2022-12-01T06:33:16.996Z,2.84
2022-12-01T06:34:16.494Z,2.81
2022-12-01T06:35:17.007Z,2.78
2022-12-01T06:36:16.502Z,2.79
2022-12-01T06:37:17.014Z,2.79
2022-12-01T06:38:16.513Z,2.82
2022-12-01T06:39:16.991Z,2.84
2022-12-01T06:40:16.459Z,2.81
2022-12-01T06:41:16.982Z,2.85
2022-12-01T06:42:16.585Z,2.86
2022-12-01T06:43:17.060Z,2.82
2022-12-01T06:44:16.560Z,2.86
2022-12-01T06:45:17.046Z,2.89
2022-12-01T06:46:16.721Z,2.89
2022-12-01T06:47:17.328Z,2.89
2022-12-01T06:48:16.846Z,2.95
2022-12-01T06:49:16.347Z,2.93
2022-12-01T06:50:16.817Z,2.92
2022-12-01T06:51:16.319Z,2.96
2022-12-01T06:52:16.314Z,2.92
2022-12-01T06:53:16.796Z,2.93
2022-12-01T06:54:17.273Z,2.93
2022-12-01T06:55:16.734Z,2.91
2022-12-01T06:56:17.225Z,2.92
2022-12-01T06:57:17.026Z,2.98
2022-12-01T06:58:17.184Z,2.93
2022-12-01T06:59:16.809Z,2.93
2022-12-01T07:00:17.014Z,2.92
2022-12-01T07:01:17.194Z,2.93
2022-12-01T07:02:17.056Z,2.95
2022-12-01T07:03:16.628Z,2.98
2022-12-01T07:04:17.087Z,2.95
2022-12-01T07:05:16.566Z,2.95
2022-12-01T07:06:17.012Z,2.95
2022-12-01T07:07:16.462Z,2.95
2022-12-01T07:08:16.991Z,2.95
2022-12-01T07:09:16.563Z,2.98
2022-12-01T07:10:17.039Z,2.99
2022-12-01T07:11:16.554Z,2.96
2022-12-01T07:12:17.205Z,2.99
2022-12-01T07:13:16.687Z,2.96
2022-12-01T07:14:17.184Z,2.95
2022-12-01T07:15:16.675Z,2.93
2022-12-01T07:16:17.185Z,2.96
2022-12-01T07:17:16.770Z,2.93
2022-12-01T07:18:17.250Z,2.92
2022-12-01T07:19:16.768Z,2.95
2022-12-01T07:20:17.230Z,2.92
2022-12-01T07:21:16.711Z,2.89
2022-12-01T07:22:16.344Z,2.92
2022-12-01T07:23:16.844Z,2.89
2022-12-01T07:24:16.348Z,2.91
2022-12-01T07:25:16.820Z,2.95
2022-12-01T07:26:16.313Z,2.98
2022-12-01T07:27:16.803Z,2.96
2022-12-01T07:28:17.280Z,2.96
2022-12-01T07:29:16.765Z,2.93
2022-12-01T07:30:17.236Z,2.95
2022-12-01T07:31:16.741Z,2.96
2022-12-01T07:32:16.478Z,2.93
2022-12-01T07:33:16.927Z,2.98
2022-12-01T07:34:16.386Z,2.96
2022-12-01T07:35:16.885Z,2.95
2022-12-01T07:36:16.392Z,2.93
2022-12-01T07:37:16.872Z,2.93
2022-12-01T07:38:20.654Z,2.92
2022-12-01T07:39:16.845Z,2.93
2022-12-01T07:40:16.336Z,2.99
2022-12-01T07:41:16.844Z,2.96
2022-12-01T07:42:16.587Z,3.00
2022-12-01T07:43:17.095Z,2.99
2022-12-01T07:44:16.565Z,2.98
2022-12-01T07:45:17.050Z,2.96
2022-12-01T07:46:22.150Z,2.99
2022-12-01T07:47:16.509Z,3.02
2022-12-01T07:48:17.008Z,2.99
2022-12-01T07:49:16.493Z,3.00
2022-12-01T07:50:16.949Z,3.00
2022-12-01T07:51:16.433Z,3.00
2022-12-01T07:52:16.492Z,2.99
2022-12-01T07:53:16.995Z,2.98
2022-12-01T07:54:16.468Z,2.96
2022-12-01T07:55:16.973Z,2.93
2022-12-01T07:56:16.448Z,2.93
2022-12-01T07:57:16.953Z,2.93
2022-12-01T07:58:16.418Z,2.96
2022-12-01T07:59:16.916Z,2.99
2022-12-01T08:00:16.383Z,2.95
2022-12-01T08:01:16.909Z,2.95
2022-12-01T08:02:17.696Z,2.96
2022-12-01T08:03:16.480Z,2.95
2022-12-01T08:04:17.074Z,2.96
2022-12-01T08:05:16.564Z,2.99
2022-12-01T08:06:17.075Z,2.96
2022-12-01T08:07:16.570Z,2.93
2022-12-01T08:08:17.153Z,2.92
2022-12-01T08:09:16.717Z,2.93
2022-12-01T08:10:17.214Z,2.92
2022-12-01T08:11:16.708Z,2.92
2022-12-01T08:12:16.416Z,2.92
2022-12-01T08:13:17.511Z,2.92
2022-12-01T08:14:17.126Z,2.96
2022-12-01T08:15:16.636Z,2.93
2022-12-01T08:16:17.216Z,2.95
2022-12-01T08:17:16.807Z,2.93
2022-12-01T08:18:17.309Z,2.96
2022-12-01T08:19:16.785Z,2.96
2022-12-01T08:20:20.899Z,2.98
2022-12-01T08:21:16.595Z,2.98
2022-12-01T08:22:16.997Z,2.98
2022-12-01T08:23:16.511Z,3.02
2022-12-01T08:24:16.988Z,3.02
2022-12-01T08:25:16.506Z,3.00
2022-12-01T08:26:17.007Z,3.02
2022-12-01T08:27:16.486Z,2.99
2022-12-01T08:28:16.941Z,3.06
2022-12-01T08:29:20.066Z,3.06
2022-12-01T08:30:17.050Z,3.04
2022-12-01T08:31:16.604Z,3.03
2022-12-01T08:32:17.210Z,3.04
2022-12-01T08:33:16.688Z,3.06
2022-12-01T08:34:17.173Z,3.09
2022-12-01T08:35:16.695Z,3.04
2022-12-01T08:36:17.175Z,3.06
2022-12-01T08:37:16.656Z,3.06
2022-12-01T08:38:17.123Z,3.06
2022-12-01T08:39:16.586Z,3.02
2022-12-01T08:40:17.100Z,3.02
2022-12-01T08:41:16.574Z,3.02
2022-12-01T08:42:17.579Z,3.04
2022-12-01T08:43:34.634Z,3.00
2022-12-01T08:44:16.574Z,2.99
2022-12-01T08:45:17.284Z,3.02
2022-12-01T08:46:16.819Z,3.00
2022-12-01T08:47:18.823Z,2.99
2022-12-01T08:48:16.615Z,2.99
2022-12-01T08:49:17.072Z,2.98
2022-12-01T08:50:16.573Z,2.99
2022-12-01T08:51:17.074Z,2.99
2022-12-01T08:52:16.457Z,3.00
2022-12-01T08:53:16.913Z,2.99
2022-12-01T08:54:16.395Z,2.98
2022-12-01T08:55:16.854Z,2.98
2022-12-01T08:56:16.330Z,2.98
2022-12-01T08:57:16.796Z,2.98
2022-12-01T08:58:17.268Z,3.00
2022-12-01T08:59:16.743Z,3.02
2022-12-01T09:00:17.219Z,3.02
2022-12-01T09:01:16.781Z,3.02
2022-12-01T09:02:17.063Z,3.07
2022-12-01T09:03:16.640Z,3.03
2022-12-01T09:04:17.266Z,3.03
2022-12-01T09:05:16.746Z,3.06
2022-12-01T09:06:17.260Z,3.04
2022-12-01T09:07:19.068Z,3.07
2022-12-01T09:08:16.459Z,3.12
2022-12-01T09:09:17.062Z,3.12
2022-12-01T09:10:16.559Z,3.13
2022-12-01T09:11:17.048Z,3.17
2022-12-01T09:12:17.031Z,3.22
2022-12-01T09:13:16.517Z,3.23
2022-12-01T09:14:16.978Z,3.26
2022-12-01T09:15:16.498Z,3.34
2022-12-01T09:16:17.028Z,3.34
2022-12-01T09:17:16.637Z,3.37
2022-12-01T09:18:17.102Z,3.30
2022-12-01T09:19:22.192Z,3.34
2022-12-01T09:20:16.495Z,3.41
2022-12-01T09:21:17.001Z,3.41
2022-12-01T09:22:17.330Z,3.41
2022-12-01T09:23:16.792Z,3.50
2022-12-01T09:24:17.292Z,3.53
2022-12-01T09:25:16.779Z,3.55
2022-12-01T09:26:17.251Z,3.62
2022-12-01T09:27:16.772Z,3.64
2022-12-01T09:28:17.251Z,3.64
2022-12-01T09:29:16.788Z,3.67
2022-12-01T09:30:17.303Z,3.68
2022-12-01T09:31:16.835Z,3.71
2022-12-01T09:32:17.003Z,3.71
2022-12-01T09:33:16.470Z,3.75
2022-12-01T09:34:16.943Z,3.78
2022-12-01T09:35:19.622Z,3.85
2022-12-01T09:36:17.019Z,3.88
2022-12-01T09:37:16.516Z,3.93
2022-12-01T09:38:17.003Z,3.92
2022-12-01T09:39:16.477Z,3.96
2022-12-01T09:40:16.962Z,3.95
2022-12-01T09:41:16.439Z,3.95
2022-12-01T09:42:16.799Z,4.08
2022-12-01T09:43:17.268Z,4.09
2022-12-01T09:44:16.739Z,4.13
2022-12-01T09:45:17.222Z,4.17
2022-12-01T09:46:16.720Z,4.17
2022-12-01T09:47:16.310Z,4.24
2022-12-01T09:48:16.821Z,4.26
2022-12-01T09:49:16.316Z,4.17
2022-12-01T09:50:16.816Z,4.12
2022-12-01T09:51:17.293Z,4.14
2022-12-01T09:52:16.931Z,4.14
2022-12-01T09:53:16.420Z,4.14
2022-12-01T09:54:16.915Z,4.20
2022-12-01T09:55:16.408Z,4.23
2022-12-01T09:56:16.896Z,4.27
2022-12-01T09:57:16.394Z,4.24
2022-12-01T09:58:16.892Z,4.27
2022-12-01T09:59:16.351Z,4.28
2022-12-01T10:00:16.855Z,4.30
2022-12-01T10:01:16.391Z,4.26
2022-12-01T10:02:16.724Z,4.27
2022-12-01T10:03:16.306Z,4.38
2022-12-01T10:04:16.775Z,4.43
2022-12-01T10:05:17.337Z,4.48
2022-12-01T10:06:28.647Z,4.48
2022-12-01T10:07:16.773Z,4.43
2022-12-01T10:08:19.303Z,4.46
2022-12-01T10:09:17.333Z,4.53
2022-12-01T10:10:16.815Z,4.48
2022-12-01T10:11:17.305Z,4.54
2022-12-01T10:12:17.220Z,4.57
2022-12-01T10:13:16.675Z,4.47
2022-12-01T10:14:19.916Z,4.43
2022-12-01T10:15:17.280Z,4.40
2022-12-01T10:16:16.799Z,4.38
2022-12-01T10:17:16.334Z,4.36
2022-12-01T10:18:16.798Z,4.46
2022-12-01T10:19:17.282Z,4.48
2022-12-01T10:20:16.757Z,4.50
2022-12-01T10:21:17.243Z,4.57
2022-12-01T10:22:16.549Z,4.53
2022-12-01T10:23:17.055Z,4.58
2022-12-01T10:24:16.575Z,4.48
2022-12-01T10:25:17.052Z,4.54
2022-12-01T10:26:16.541Z,4.53
2022-12-01T10:27:17.012Z,4.58
2022-12-01T10:28:16.485Z,4.67
2022-12-01T10:29:16.975Z,4.81
2022-12-01T10:30:16.478Z,4.84
2022-12-01T10:31:17.033Z,4.92
2022-12-01T10:32:16.989Z,4.91
2022-12-01T10:33:16.450Z,4.86
2022-12-01T10:34:16.990Z,4.86
2022-12-01T10:35:16.522Z,4.88
2022-12-01T10:36:16.990Z,4.85
2022-12-01T10:37:16.506Z,4.85
2022-12-01T10:38:17.066Z,4.85
2022-12-01T10:39:16.527Z,4.72
2022-12-01T10:40:17.026Z,4.74
2022-12-01T10:41:16.519Z,4.79
2022-12-01T10:42:17.074Z,4.79
2022-12-01T10:43:16.565Z,4.81
2022-12-01T10:44:17.071Z,4.72
2022-12-01T10:45:16.556Z,4.75
2022-12-01T10:46:17.057Z,4.76
2022-12-01T10:47:16.682Z,4.75
2022-12-01T10:48:17.187Z,4.76
2022-12-01T10:49:16.669Z,4.78
2022-12-01T10:50:17.222Z,4.79
2022-12-01T10:51:16.881Z,4.85
2022-12-01T10:52:17.348Z,4.91
2022-12-01T10:53:16.845Z,4.88
2022-12-01T10:54:16.360Z,4.84
2022-12-01T10:55:16.867Z,4.99
2022-12-01T10:56:16.342Z,4.98
2022-12-01T10:57:16.906Z,5.00
2022-12-01T10:58:16.447Z,5.09
2022-12-01T10:59:16.934Z,4.98
2022-12-01T11:00:36.197Z,4.99
2022-12-01T11:01:17.039Z,5.05
2022-12-01T11:02:17.040Z,5.07
2022-12-01T11:03:21.299Z,5.06
2022-12-01T11:04:16.763Z,5.16
2022-12-01T11:05:17.234Z,5.12
2022-12-01T11:06:16.704Z,5.17
2022-12-01T11:07:17.187Z,5.19
2022-12-01T11:08:16.660Z,5.03
2022-12-01T11:09:20.235Z,5.06
2022-12-01T11:10:16.635Z,5.06
2022-12-01T11:11:17.277Z,4.92
2022-12-01T11:12:16.633Z,4.95
2022-12-01T11:13:17.122Z,4.98
2022-12-01T11:14:16.655Z,4.98
2022-12-01T11:15:17.140Z,4.99
2022-12-01T11:16:16.657Z,5.07
2022-12-01T11:17:16.348Z,5.10
2022-12-01T11:18:16.868Z,5.13
2022-12-01T11:19:18.371Z,5.16
2022-12-01T11:20:17.296Z,5.17
2022-12-01T11:21:16.862Z,5.30
2022-12-01T11:22:16.368Z,5.30
2022-12-01T11:23:16.863Z,5.44
2022-12-01T11:24:16.387Z,5.45
2022-12-01T11:25:16.878Z,5.40
2022-12-01T11:26:16.490Z,5.34
2022-12-01T11:27:17.034Z,5.41
2022-12-01T11:28:16.575Z,5.40
2022-12-01T11:29:17.052Z,5.35
2022-12-01T11:30:16.555Z,5.34
2022-12-01T11:31:17.121Z,5.28
2022-12-01T11:32:16.651Z,5.34
2022-12-01T11:33:17.290Z,5.41
2022-12-01T11:34:16.755Z,5.43
2022-12-01T11:35:17.209Z,5.50
2022-12-01T11:36:16.678Z,5.55
2022-12-01T11:37:17.184Z,5.54
2022-12-01T11:38:30.226Z,5.62
2022-12-01T11:39:16.608Z,5.67
2022-12-01T11:40:17.086Z,5.70
2022-12-01T11:41:16.610Z,5.85
2022-12-01T11:42:17.156Z,5.89
2022-12-01T11:43:16.699Z,5.92
2022-12-01T11:44:35.547Z,5.89
2022-12-01T11:45:16.720Z,5.89
2022-12-01T11:46:17.269Z,5.96
2022-12-01T11:47:23.021Z,5.96
2022-12-01T11:48:17.101Z,5.86
2022-12-01T11:49:16.576Z,5.79
2022-12-01T11:50:17.078Z,5.81
2022-12-01T11:51:16.558Z,5.81
2022-12-01T11:52:17.317Z,5.74
2022-12-01T11:53:16.836Z,5.77
2022-12-01T11:54:16.318Z,5.78
2022-12-01T11:55:16.807Z,5.79
2022-12-01T11:56:16.296Z,5.88
2022-12-01T11:57:33.543Z,5.89
2022-12-01T11:58:16.844Z,5.86
2022-12-01T11:59:16.422Z,5.95
2022-12-01T12:00:16.893Z,5.95
2022-12-01T12:01:20.492Z,6.05
2022-12-01T12:02:17.264Z,6.13
2022-12-01T12:03:16.959Z,6.14
2022-12-01T12:04:16.552Z,6.20
2022-12-01T12:05:16.999Z,6.26
2022-12-01T12:06:39.306Z,6.20
2022-12-01T12:07:16.955Z,6.26
2022-12-01T12:08:16.430Z,6.36
2022-12-01T12:09:16.912Z,6.38
2022-12-01T12:10:16.425Z,6.38
2022-12-01T12:11:16.928Z,6.36
2022-12-01T12:12:17.204Z,6.37
2022-12-01T12:13:16.714Z,6.26
2022-12-01T12:14:17.234Z,6.17
2022-12-01T12:15:16.921Z,6.09
2022-12-01T12:16:16.423Z,6.12
2022-12-01T12:17:16.999Z,6.03
2022-12-01T12:18:16.654Z,6.05
2022-12-01T12:19:17.146Z,6.10
2022-12-01T12:20:17.181Z,6.10
2022-12-01T12:21:16.381Z,6.08
2022-12-01T12:22:16.463Z,6.20
2022-12-01T12:23:16.949Z,6.19
2022-12-01T12:24:16.435Z,6.21
2022-12-01T12:25:16.928Z,6.21
2022-12-01T12:26:16.396Z,6.40
2022-12-01T12:27:16.913Z,6.41
2022-12-01T12:28:16.373Z,6.45
2022-12-01T12:29:16.842Z,6.43
2022-12-01T12:30:16.333Z,6.49
2022-12-01T12:31:16.942Z,6.52
2022-12-01T12:32:16.498Z,6.54
2022-12-01T12:33:16.953Z,6.64
2022-12-01T12:34:16.464Z,6.63
2022-12-01T12:35:16.988Z,6.64
2022-12-01T12:36:16.485Z,6.63
2022-12-01T12:37:17.483Z,6.59
2022-12-01T12:38:16.995Z,6.58
2022-12-01T12:39:16.890Z,6.51
2022-12-01T12:40:16.672Z,6.49
2022-12-01T12:41:17.255Z,6.41
2022-12-01T12:42:16.822Z,6.37
2022-12-01T12:43:16.308Z,6.45
2022-12-01T12:44:16.802Z,6.43
2022-12-01T12:45:17.319Z,6.43
2022-12-01T12:46:16.928Z,6.47
2022-12-01T12:47:16.505Z,6.48
2022-12-01T12:48:17.132Z,6.55
2022-12-01T12:49:20.644Z,6.55
2022-12-01T12:50:16.674Z,6.55
2022-12-01T12:51:16.304Z,6.47
2022-12-01T12:52:16.696Z,6.49
2022-12-01T12:53:17.194Z,6.48
2022-12-01T12:54:16.717Z,6.48
2022-12-01T12:55:17.271Z,6.48
2022-12-01T12:56:16.796Z,6.51
2022-12-01T12:57:17.303Z,6.57
2022-12-01T12:58:16.797Z,6.59
2022-12-01T12:59:17.289Z,6.63
2022-12-01T13:00:16.853Z,6.69
2022-12-01T13:01:16.463Z,6.63
2022-12-01T13:02:17.049Z,6.61
2022-12-01T13:03:16.612Z,6.58
2022-12-01T13:04:17.070Z,6.64
2022-12-01T13:05:16.554Z,6.58
2022-12-01T13:06:17.049Z,6.41
2022-12-01T13:07:16.562Z,6.41
2022-12-01T13:08:17.054Z,6.37
2022-12-01T13:09:16.527Z,6.38
2022-12-01T13:10:16.993Z,6.38
2022-12-01T13:11:16.468Z,6.49
2022-12-01T13:12:17.190Z,6.43
2022-12-01T13:13:16.690Z,6.41
2022-12-01T13:14:17.181Z,6.33
2022-12-01T13:15:16.676Z,6.27
2022-12-01T13:16:17.219Z,6.30
2022-12-01T13:17:16.819Z,6.31
2022-12-01T13:18:16.298Z,6.31